createdAt,value
2023-04-25T00:00:41.548Z,967.00
2023-04-25T00:01:41.544Z,963.00
2023-04-25T00:02:41.640Z,968.00
2023-04-25T00:03:41.658Z,973.00
2023-04-25T00:04:41.626Z,978.00
2023-04-25T00:05:41.538Z,986.00
2023-04-25T00:06:41.501Z,981.00
2023-04-25T00:07:41.510Z,974.00
2023-04-25T00:08:41.504Z,975.00
2023-04-25T00:09:41.500Z,986.00
2023-04-25T00:10:41.530Z,971.00
2023-04-25T00:11:41.625Z,970.00
2023-04-25T00:12:41.619Z,962.00
2023-04-25T00:13:41.681Z,969.00
2023-04-25T00:14:41.759Z,970.00
2023-04-25T00:15:41.853Z,974.00
2023-04-25T00:16:41.850Z,960.00
2023-04-25T00:17:41.944Z,954.00
2023-04-25T00:18:41.950Z,965.00
2023-04-25T00:19:41.992Z,966.00
2023-04-25T00:20:42.053Z,963.00
2023-04-25T00:21:42.112Z,959.00
2023-04-25T00:22:42.158Z,965.00
2023-04-25T00:23:42.210Z,968.00
2023-04-25T00:24:42.261Z,959.00
2023-04-25T00:25:42.317Z,961.00
2023-04-25T00:26:42.364Z,961.00
2023-04-25T00:27:42.404Z,956.00
2023-04-25T00:28:42.473Z,944.00
2023-04-25T00:29:42.525Z,952.00
2023-04-25T00:30:42.557Z,941.00
2023-04-25T00:31:42.692Z,946.00
2023-04-25T00:32:42.696Z,939.00
2023-04-25T00:33:42.709Z,944.00
2023-04-25T00:34:42.775Z,940.00
2023-04-25T00:35:42.826Z,929.00
2023-04-25T00:36:42.873Z,953.00
2023-04-25T00:37:42.925Z,942.00
2023-04-25T00:38:42.975Z,938.00
2023-04-25T00:39:43.033Z,953.00
2023-04-25T00:40:43.057Z,941.00
2023-04-25T00:41:43.100Z,940.00
2023-04-25T00:42:43.167Z,922.00
2023-04-25T00:43:43.264Z,937.00
2023-04-25T00:44:43.296Z,929.00
2023-04-25T00:45:43.333Z,940.00
2023-04-25T00:46:43.356Z,946.00
2023-04-25T00:47:43.467Z,947.00
2023-04-25T00:48:43.412Z,940.00
2023-04-25T00:49:43.467Z,943.00
2023-04-25T00:50:43.516Z,952.00
2023-04-25T00:51:43.581Z,937.00
2023-04-25T00:52:43.603Z,935.00
2023-04-25T00:53:43.663Z,938.00
2023-04-25T00:54:43.714Z,940.00
2023-04-25T00:55:43.765Z,931.00
2023-04-25T00:56:43.815Z,916.00
2023-04-25T00:57:43.871Z,921.00
2023-04-25T00:58:43.912Z,937.00
2023-04-25T00:59:43.968Z,930.00
2023-04-25T01:00:44.056Z,925.00
2023-04-25T01:01:45.166Z,916.00
2023-04-25T01:02:44.332Z,929.00
2023-04-25T01:03:44.292Z,930.00
2023-04-25T01:04:44.119Z,932.00
2023-04-25T01:05:44.116Z,930.00
2023-04-25T01:06:44.107Z,929.00
2023-04-25T01:07:44.130Z,935.00
2023-04-25T01:08:44.108Z,924.00
2023-04-25T01:09:44.114Z,927.00
2023-04-25T01:10:44.101Z,926.00
2023-04-25T01:11:44.106Z,928.00
2023-04-25T01:12:44.084Z,912.00
2023-04-25T01:13:44.131Z,920.00
2023-04-25T01:14:44.200Z,929.00
2023-04-25T01:15:44.242Z,922.00
2023-04-25T01:16:44.344Z,926.00
2023-04-25T01:17:44.379Z,933.00
2023-04-25T01:18:44.372Z,913.00
2023-04-25T01:19:44.423Z,917.00
2023-04-25T01:20:44.482Z,913.00
2023-04-25T01:21:44.560Z,911.00
2023-04-25T01:22:44.580Z,915.00
2023-04-25T01:23:44.641Z,909.00
2023-04-25T01:24:44.624Z,911.00
2023-04-25T01:25:44.622Z,911.00
2023-04-25T01:26:44.617Z,914.00
2023-04-25T01:27:44.614Z,919.00
2023-04-25T01:28:44.606Z,914.00
2023-04-25T01:29:44.619Z,911.00
2023-04-25T01:30:44.613Z,928.00
2023-04-25T01:31:44.672Z,926.00
2023-04-25T01:32:44.640Z,916.00
2023-04-25T01:33:44.573Z,903.00
2023-04-25T01:34:44.650Z,924.00
2023-04-25T01:35:44.665Z,925.00
2023-04-25T01:36:44.720Z,922.00
2023-04-25T01:37:44.762Z,932.00
2023-04-25T01:38:44.819Z,915.00
2023-04-25T01:39:44.881Z,931.00
2023-04-25T01:40:44.966Z,922.00
2023-04-25T01:41:45.008Z,914.00
2023-04-25T01:42:45.060Z,925.00
2023-04-25T01:43:45.174Z,920.00
2023-04-25T01:44:45.140Z,922.00
2023-04-25T01:45:45.284Z,921.00
2023-04-25T01:46:45.252Z,919.00
2023-04-25T01:47:45.320Z,925.00
2023-04-25T01:48:45.329Z,918.00
2023-04-25T01:49:45.378Z,903.00
2023-04-25T01:50:45.433Z,917.00
2023-04-25T01:51:45.491Z,918.00
2023-04-25T01:52:45.527Z,922.00
2023-04-25T01:53:45.592Z,909.00
2023-04-25T01:54:45.668Z,924.00
2023-04-25T01:55:45.677Z,916.00
2023-04-25T01:56:45.732Z,916.00
2023-04-25T01:57:46.616Z,913.00
2023-04-25T01:58:45.774Z,915.00
2023-04-25T01:59:45.765Z,917.00
2023-04-25T02:00:45.775Z,919.00
2023-04-25T02:01:45.813Z,924.00
2023-04-25T02:02:45.830Z,929.00
2023-04-25T02:03:45.856Z,943.00
2023-04-25T02:04:45.794Z,932.00
2023-04-25T02:05:45.757Z,909.00
2023-04-25T02:06:45.738Z,932.00
2023-04-25T02:07:45.742Z,906.00
2023-04-25T02:08:45.739Z,924.00
2023-04-25T02:09:46.621Z,927.00
2023-04-25T02:10:45.725Z,929.00
2023-04-25T02:11:45.731Z,922.00
2023-04-25T02:12:45.745Z,917.00
2023-04-25T02:13:45.720Z,914.00
2023-04-25T02:14:45.723Z,914.00
2023-04-25T02:15:46.733Z,921.00
2023-04-25T02:16:45.801Z,920.00
2023-04-25T02:17:45.720Z,905.00
2023-04-25T02:18:45.701Z,906.00
2023-04-25T02:19:45.696Z,910.00
2023-04-25T02:20:45.692Z,912.00
2023-04-25T02:21:45.686Z,914.00
2023-04-25T02:22:45.682Z,935.00
2023-04-25T02:23:45.684Z,916.00
2023-04-25T02:24:45.672Z,920.00
2023-04-25T02:25:45.665Z,919.00
2023-04-25T02:26:45.673Z,925.00
2023-04-25T02:27:45.679Z,921.00
2023-04-25T02:28:45.693Z,922.00
2023-04-25T02:29:45.684Z,923.00
2023-04-25T02:30:45.679Z,916.00
2023-04-25T02:31:45.783Z,913.00
2023-04-25T02:32:45.700Z,918.00
2023-04-25T02:33:45.676Z,915.00
2023-04-25T02:34:45.693Z,919.00
2023-04-25T02:35:45.674Z,908.00
2023-04-25T02:36:45.677Z,907.00
2023-04-25T02:37:45.683Z,920.00
2023-04-25T02:38:45.739Z,924.00
2023-04-25T02:39:45.815Z,911.00
2023-04-25T02:40:45.867Z,910.00
2023-04-25T02:41:45.861Z,911.00
2023-04-25T02:42:45.866Z,912.00
2023-04-25T02:43:45.862Z,914.00
2023-04-25T02:44:45.872Z,921.00
2023-04-25T02:45:45.868Z,912.00
2023-04-25T02:46:45.923Z,923.00
2023-04-25T02:47:45.955Z,909.00
2023-04-25T02:48:45.880Z,914.00
2023-04-25T02:49:45.864Z,917.00
2023-04-25T02:50:45.883Z,909.00
2023-04-25T02:51:45.916Z,916.00
2023-04-25T02:52:45.970Z,912.00
2023-04-25T02:53:45.959Z,913.00
2023-04-25T02:54:45.962Z,913.00
2023-04-25T02:55:45.958Z,915.00
2023-04-25T02:56:45.955Z,908.00
2023-04-25T02:57:45.965Z,907.00
2023-04-25T02:58:45.951Z,913.00
2023-04-25T02:59:45.945Z,914.00
2023-04-25T03:00:45.972Z,913.00
2023-04-25T03:01:45.968Z,907.00
2023-04-25T03:02:46.012Z,900.00
2023-04-25T03:03:46.050Z,905.00
2023-04-25T03:04:46.119Z,897.00
2023-04-25T03:05:46.096Z,912.00
2023-04-25T03:06:46.142Z,900.00
2023-04-25T03:07:46.178Z,903.00
2023-04-25T03:08:46.231Z,896.00
2023-04-25T03:09:46.271Z,906.00
2023-04-25T03:10:46.323Z,903.00
2023-04-25T03:11:46.388Z,898.00
2023-04-25T03:12:46.409Z,905.00
2023-04-25T03:13:46.458Z,900.00
2023-04-25T03:14:46.513Z,905.00
2023-04-25T03:15:46.559Z,891.00
2023-04-25T03:16:46.620Z,898.00
2023-04-25T03:17:46.691Z,889.00
2023-04-25T03:18:46.697Z,884.00
2023-04-25T03:19:46.774Z,886.00
2023-04-25T03:20:46.793Z,893.00
2023-04-25T03:21:46.853Z,888.00
2023-04-25T03:22:46.893Z,892.00
2023-04-25T03:23:46.926Z,890.00
2023-04-25T03:24:46.974Z,887.00
2023-04-25T03:25:47.023Z,900.00
2023-04-25T03:26:47.085Z,893.00
2023-04-25T03:27:47.139Z,900.00
2023-04-25T03:28:47.195Z,889.00
2023-04-25T03:29:47.239Z,898.00
2023-04-25T03:30:47.283Z,892.00
2023-04-25T03:31:47.376Z,880.00
2023-04-25T03:32:47.363Z,889.00
2023-04-25T03:33:47.511Z,891.00
2023-04-25T03:34:47.505Z,902.00
2023-04-25T03:35:47.552Z,879.00
2023-04-25T03:36:47.607Z,886.00
2023-04-25T03:37:47.658Z,869.00
2023-04-25T03:38:47.689Z,875.00
2023-04-25T03:39:47.743Z,888.00
2023-04-25T03:40:47.789Z,890.00
2023-04-25T03:41:47.825Z,891.00
2023-04-25T03:42:47.865Z,879.00
2023-04-25T03:43:48.027Z,878.00
2023-04-25T03:44:47.926Z,871.00
2023-04-25T03:45:48.003Z,875.00
2023-04-25T03:46:48.028Z,876.00
2023-04-25T03:47:48.135Z,868.00
2023-04-25T03:48:48.151Z,874.00
2023-04-25T03:49:48.192Z,868.00
2023-04-25T03:50:48.251Z,880.00
2023-04-25T03:51:48.246Z,881.00
2023-04-25T03:52:48.232Z,881.00
2023-04-25T03:53:48.330Z,882.00
2023-04-25T03:54:48.213Z,873.00
2023-04-25T03:55:48.201Z,882.00
2023-04-25T03:56:48.204Z,888.00
2023-04-25T03:57:48.177Z,871.00
2023-04-25T03:58:48.179Z,857.00
2023-04-25T03:59:48.172Z,867.00
2023-04-25T04:00:48.158Z,863.00
2023-04-25T04:01:48.211Z,865.00
2023-04-25T04:02:48.321Z,866.00
2023-04-25T04:03:48.481Z,877.00
2023-04-25T04:04:48.630Z,870.00
2023-04-25T04:05:48.482Z,867.00
2023-04-25T04:06:48.442Z,893.00
2023-04-25T04:07:48.466Z,861.00
2023-04-25T04:08:48.505Z,872.00
2023-04-25T04:09:48.568Z,875.00
2023-04-25T04:10:48.618Z,873.00
2023-04-25T04:11:48.659Z,864.00
2023-04-25T04:12:48.668Z,865.00
2023-04-25T04:13:49.039Z,866.00
2023-04-25T04:14:48.649Z,867.00
2023-04-25T04:15:48.645Z,873.00
2023-04-25T04:16:48.630Z,877.00
2023-04-25T04:17:48.652Z,868.00
2023-04-25T04:18:48.604Z,863.00
2023-04-25T04:19:48.589Z,896.00
2023-04-25T04:20:48.598Z,872.00
2023-04-25T04:21:48.587Z,865.00
2023-04-25T04:22:48.646Z,874.00
2023-04-25T04:23:48.804Z,851.00
2023-04-25T04:24:48.738Z,854.00
2023-04-25T04:25:48.834Z,866.00
2023-04-25T04:26:48.876Z,866.00
2023-04-25T04:27:48.895Z,859.00
2023-04-25T04:28:48.962Z,885.00
2023-04-25T04:29:48.984Z,857.00
2023-04-25T04:30:49.045Z,852.00
2023-04-25T04:31:49.111Z,853.00
2023-04-25T04:32:50.595Z,850.00
2023-04-25T04:33:49.447Z,845.00
2023-04-25T04:34:49.256Z,875.00
2023-04-25T04:35:49.316Z,856.00
2023-04-25T04:36:49.363Z,867.00
2023-04-25T04:37:49.389Z,857.00
2023-04-25T04:38:49.457Z,871.00
2023-04-25T04:39:49.523Z,854.00
2023-04-25T04:40:49.507Z,855.00
2023-04-25T04:41:49.526Z,856.00
2023-04-25T04:42:49.485Z,855.00
2023-04-25T04:43:49.630Z,856.00
2023-04-25T04:44:49.464Z,859.00
2023-04-25T04:45:49.460Z,850.00
2023-04-25T04:46:49.570Z,862.00
2023-04-25T04:47:50.130Z,845.00
2023-04-25T04:48:49.435Z,855.00
2023-04-25T04:49:49.491Z,846.00
2023-04-25T04:50:49.544Z,845.00
2023-04-25T04:51:49.612Z,861.00
2023-04-25T04:52:49.650Z,858.00
2023-04-25T04:53:50.847Z,849.00
2023-04-25T04:54:49.784Z,845.00
2023-04-25T04:55:49.810Z,883.00
2023-04-25T04:56:49.870Z,863.00
2023-04-25T04:57:49.973Z,860.00
2023-04-25T04:58:50.088Z,852.00
2023-04-25T04:59:50.041Z,868.00
2023-04-25T05:00:50.135Z,865.00
2023-04-25T05:01:50.165Z,861.00
2023-04-25T05:02:50.381Z,840.00
2023-04-25T05:03:50.917Z,843.00
2023-04-25T05:04:50.433Z,851.00
2023-04-25T05:05:50.397Z,850.00
2023-04-25T05:06:50.453Z,853.00
2023-04-25T05:07:50.518Z,840.00
2023-04-25T05:08:50.572Z,837.00
2023-04-25T05:09:50.634Z,841.00
2023-04-25T05:10:50.683Z,842.00
2023-04-25T05:11:50.748Z,850.00
2023-04-25T05:12:50.803Z,828.00
2023-04-25T05:13:51.026Z,841.00
2023-04-25T05:14:50.875Z,843.00
2023-04-25T05:15:50.855Z,841.00
2023-04-25T05:16:50.900Z,849.00
2023-04-25T05:17:50.889Z,844.00
2023-04-25T05:18:50.860Z,846.00
2023-04-25T05:19:50.904Z,853.00
2023-04-25T05:20:50.859Z,838.00
2023-04-25T05:21:50.852Z,850.00
2023-04-25T05:22:50.908Z,841.00
2023-04-25T05:23:51.089Z,851.00
2023-04-25T05:24:51.004Z,830.00
2023-04-25T05:25:52.012Z,831.00
2023-04-25T05:26:50.988Z,809.00
2023-04-25T05:27:51.001Z,814.00
2023-04-25T05:28:51.020Z,791.00
2023-04-25T05:29:51.002Z,759.00
2023-04-25T05:30:51.007Z,741.00
2023-04-25T05:31:51.069Z,775.00
2023-04-25T05:32:51.067Z,744.00
2023-04-25T05:33:51.296Z,728.00
2023-04-25T05:34:57.724Z,748.00
2023-04-25T05:35:51.046Z,751.00
2023-04-25T05:36:52.698Z,757.00
2023-04-25T05:37:51.042Z,777.00
2023-04-25T05:38:51.033Z,808.00
2023-04-25T05:39:51.030Z,851.00
2023-04-25T05:40:51.045Z,866.00
2023-04-25T05:41:51.028Z,905.00
2023-04-25T05:42:51.033Z,933.00
2023-04-25T05:43:51.494Z,972.00
2023-04-25T05:44:51.014Z,994.00
2023-04-25T05:45:51.057Z,1040.00
2023-04-25T05:46:51.008Z,1071.00
2023-04-25T05:47:51.071Z,1093.00
2023-04-25T05:48:51.001Z,1130.00
2023-04-25T05:49:51.000Z,1153.00
2023-04-25T05:50:50.999Z,1186.00
2023-04-25T05:51:50.993Z,1217.00
2023-04-25T05:52:50.993Z,1255.00
2023-04-25T05:53:51.232Z,1307.00
2023-04-25T05:54:51.053Z,1338.00
2023-04-25T05:55:52.719Z,1365.00
2023-04-25T05:56:51.675Z,1391.00
2023-04-25T05:57:51.689Z,1432.00
2023-04-25T05:58:51.681Z,1467.00
2023-04-25T05:59:52.182Z,1512.00
2023-04-25T06:00:51.237Z,1543.00
2023-04-25T06:01:51.223Z,1573.00
2023-04-25T06:02:51.366Z,1599.00
2023-04-25T06:03:51.552Z,1641.00
2023-04-25T06:04:51.450Z,1692.00
2023-04-25T06:05:51.336Z,1719.00
2023-04-25T06:06:51.347Z,1744.00
2023-04-25T06:07:51.373Z,1780.00
2023-04-25T06:08:51.346Z,1782.00
2023-04-25T06:09:52.197Z,1791.00
2023-04-25T06:10:51.325Z,1818.00
2023-04-25T06:11:51.320Z,1856.00
2023-04-25T06:12:51.308Z,1924.00
2023-04-25T06:13:51.500Z,1948.00
2023-04-25T06:14:51.272Z,1969.00
2023-04-25T06:15:51.778Z,1983.00
2023-04-25T06:16:51.356Z,2010.00
2023-04-25T06:17:51.362Z,2028.00
2023-04-25T06:18:51.212Z,2035.00
2023-04-25T06:19:51.184Z,2067.00
2023-04-25T06:20:51.179Z,2086.00
2023-04-25T06:21:51.151Z,2135.00
2023-04-25T06:22:51.142Z,2135.00
2023-04-25T06:23:51.306Z,2118.00
2023-04-25T06:24:51.694Z,2132.00
2023-04-25T06:25:51.080Z,2130.00
2023-04-25T06:26:51.057Z,2128.00
2023-04-25T06:27:51.041Z,2144.00
2023-04-25T06:28:51.016Z,2142.00
2023-04-25T06:29:51.003Z,2149.00
2023-04-25T06:30:50.992Z,2157.00
2023-04-25T06:31:51.229Z,2151.00
2023-04-25T06:32:51.032Z,2149.00
2023-04-25T06:33:51.206Z,2139.00
2023-04-25T06:34:50.983Z,2149.00
2023-04-25T06:35:51.059Z,2145.00
2023-04-25T06:36:51.003Z,2130.00
2023-04-25T06:37:51.040Z,2133.00
2023-04-25T06:38:51.169Z,2112.00
2023-04-25T06:39:51.015Z,2123.00
2023-04-25T06:40:51.015Z,2117.00
2023-04-25T06:41:51.028Z,2113.00
2023-04-25T06:42:51.063Z,2126.00
2023-04-25T06:43:53.209Z,2126.00
2023-04-25T06:44:51.036Z,2101.00
2023-04-25T06:45:51.073Z,2091.00
2023-04-25T06:46:51.827Z,2100.00
2023-04-25T06:47:51.133Z,2102.00
2023-04-25T06:48:51.399Z,2096.00
2023-04-25T06:49:51.141Z,2082.00
2023-04-25T06:50:51.153Z,2083.00
2023-04-25T06:51:51.181Z,2091.00
2023-04-25T06:52:51.191Z,2086.00
2023-04-25T06:53:51.234Z,2079.00
2023-04-25T06:54:51.241Z,2068.00
2023-04-25T06:55:51.271Z,2063.00
2023-04-25T06:56:51.302Z,2069.00
2023-04-25T06:57:51.310Z,2059.00
2023-04-25T06:58:51.690Z,2065.00
2023-04-25T06:59:51.340Z,2066.00
2023-04-25T07:00:51.418Z,2066.00
2023-04-25T07:01:51.327Z,2063.00
2023-04-25T07:02:51.391Z,2041.00
2023-04-25T07:03:51.435Z,2026.00
2023-04-25T07:04:51.428Z,2049.00
2023-04-25T07:05:51.284Z,2047.00
2023-04-25T07:06:51.288Z,2031.00
2023-04-25T07:07:51.275Z,2014.00
2023-04-25T07:08:51.425Z,2028.00
2023-04-25T07:09:51.263Z,2009.00
2023-04-25T07:10:52.244Z,2017.00
2023-04-25T07:11:51.231Z,1999.00
2023-04-25T07:12:51.225Z,2003.00
2023-04-25T07:13:51.320Z,2002.00
2023-04-25T07:14:51.283Z,2010.00
2023-04-25T07:15:51.314Z,1995.00
2023-04-25T07:16:51.365Z,1982.00
2023-04-25T07:17:51.441Z,1987.00
2023-04-25T07:18:51.646Z,1976.00
2023-04-25T07:19:51.437Z,1946.00
2023-04-25T07:20:51.486Z,1755.00
2023-04-25T07:21:54.069Z,1502.00
2023-04-25T07:22:51.805Z,1288.00
2023-04-25T07:23:51.820Z,1305.00
2023-04-25T07:24:51.845Z,1261.00
2023-04-25T07:25:51.858Z,1179.00
2023-04-25T07:26:51.904Z,1137.00
2023-04-25T07:27:51.895Z,1119.00
2023-04-25T07:28:52.112Z,1038.00
2023-04-25T07:29:51.914Z,1007.00
2023-04-25T07:30:51.921Z,640.00
2023-04-25T07:31:51.954Z,599.00
2023-04-25T07:32:52.131Z,846.00
2023-04-25T07:33:51.969Z,818.00
2023-04-25T07:34:52.322Z,740.00
2023-04-25T07:35:51.998Z,727.00
2023-04-25T07:36:51.994Z,672.00
2023-04-25T07:37:52.013Z,642.00
2023-04-25T07:38:52.290Z,657.00
2023-04-25T07:39:52.023Z,696.00
2023-04-25T07:40:52.037Z,665.00
2023-04-25T07:41:54.480Z,638.00
2023-04-25T07:42:52.065Z,680.00
2023-04-25T07:43:53.728Z,677.00
2023-04-25T07:44:52.046Z,724.00
2023-04-25T07:45:52.094Z,688.00
2023-04-25T07:46:52.056Z,623.00
2023-04-25T07:47:52.094Z,609.00
2023-04-25T07:48:52.399Z,595.00
2023-04-25T07:49:52.059Z,585.00
2023-04-25T07:50:52.056Z,622.00
2023-04-25T07:51:53.057Z,605.00
2023-04-25T07:52:52.068Z,537.00
2023-04-25T07:53:52.075Z,536.00
2023-04-25T07:54:52.070Z,520.00
2023-04-25T07:55:52.130Z,503.00
2023-04-25T07:56:53.889Z,531.00
2023-04-25T07:57:52.723Z,506.00
2023-04-25T07:58:52.412Z,514.00
2023-04-25T07:59:52.105Z,496.00
2023-04-25T08:00:52.100Z,530.00
2023-04-25T08:01:52.118Z,530.00
2023-04-25T08:02:52.357Z,531.00
2023-04-25T08:03:52.244Z,531.00
2023-04-25T08:04:52.231Z,496.00
2023-04-25T08:05:52.309Z,507.00
2023-04-25T08:06:52.129Z,494.00
2023-04-25T08:07:53.769Z,487.00
2023-04-25T08:08:53.895Z,498.00
2023-04-25T08:09:52.157Z,526.00
2023-04-25T08:10:52.179Z,570.00
2023-04-25T08:11:52.156Z,568.00
2023-04-25T08:12:52.163Z,636.00
2023-04-25T08:13:52.177Z,638.00
2023-04-25T08:14:52.169Z,650.00
2023-04-25T08:15:52.209Z,650.00
2023-04-25T08:16:52.196Z,635.00
2023-04-25T08:17:52.230Z,641.00
2023-04-25T08:18:52.529Z,647.00
2023-04-25T08:19:52.216Z,637.00
2023-04-25T08:20:52.182Z,636.00
2023-04-25T08:21:52.176Z,640.00
2023-04-25T08:22:52.185Z,592.00
2023-04-25T08:23:52.236Z,602.00
2023-04-25T08:24:52.213Z,617.00
2023-04-25T08:25:52.227Z,552.00
2023-04-25T08:26:52.234Z,593.00
2023-04-25T08:27:52.249Z,577.00
2023-04-25T08:28:52.510Z,582.00
2023-04-25T08:29:52.758Z,591.00
2023-04-25T08:30:52.259Z,591.00
2023-04-25T08:31:57.255Z,598.00
2023-04-25T08:32:52.372Z,599.00
2023-04-25T08:33:52.283Z,600.00
2023-04-25T08:34:52.272Z,601.00
2023-04-25T08:35:52.273Z,599.00
2023-04-25T08:36:52.307Z,598.00
2023-04-25T08:37:52.268Z,599.00
2023-04-25T08:38:55.221Z,601.00
2023-04-25T08:39:52.263Z,599.00
2023-04-25T08:40:57.753Z,602.00
2023-04-25T08:41:52.368Z,600.00
2023-04-25T08:42:52.400Z,606.00
2023-04-25T08:43:52.458Z,622.00
2023-04-25T08:44:54.276Z,647.00
2023-04-25T08:45:52.505Z,724.00
2023-04-25T08:46:52.559Z,772.00
2023-04-25T08:47:52.610Z,816.00
2023-04-25T08:48:54.435Z,856.00
2023-04-25T08:49:52.548Z,916.00
2023-04-25T08:50:52.544Z,939.00
2023-04-25T08:51:52.545Z,972.00
2023-04-25T08:52:52.530Z,1006.00
2023-04-25T08:53:54.388Z,1030.00
2023-04-25T08:54:52.584Z,1032.00
2023-04-25T08:55:52.794Z,1035.00
2023-04-25T08:56:52.477Z,1051.00
2023-04-25T08:57:52.466Z,1082.00
2023-04-25T08:58:52.659Z,1145.00
2023-04-25T08:59:52.444Z,1174.00
2023-04-25T09:00:52.494Z,1203.00
2023-04-25T09:01:52.434Z,1242.00
2023-04-25T09:02:52.484Z,1274.00
2023-04-25T09:03:52.560Z,1283.00
2023-04-25T09:04:55.951Z,1322.00
2023-04-25T09:05:52.383Z,1323.00
2023-04-25T09:06:52.370Z,1329.00
2023-04-25T09:07:52.347Z,1349.00
2023-04-25T09:08:52.306Z,1393.00
2023-04-25T09:09:52.291Z,1458.00
2023-04-25T09:10:52.279Z,1458.00
2023-04-25T09:11:52.266Z,1507.00
2023-04-25T09:12:52.336Z,1527.00
2023-04-25T09:13:52.438Z,1552.00
2023-04-25T09:14:52.250Z,1573.00
2023-04-25T09:15:52.224Z,1590.00
2023-04-25T09:16:52.239Z,1605.00
2023-04-25T09:17:52.194Z,1648.00
2023-04-25T09:18:52.173Z,1651.00
2023-04-25T09:19:52.164Z,1632.00
2023-04-25T09:21:52.136Z,1645.00
2023-04-25T09:22:52.751Z,1661.00
2023-04-25T09:23:53.308Z,1653.00
2023-04-25T09:24:52.218Z,1599.00
2023-04-25T09:25:52.086Z,1579.00
2023-04-25T09:26:52.066Z,1593.00
2023-04-25T09:27:56.778Z,1605.00
2023-04-25T09:28:52.037Z,1607.00
2023-04-25T09:29:52.015Z,1610.00
2023-04-25T09:30:51.992Z,1626.00
2023-04-25T09:31:52.104Z,1608.00
2023-04-25T09:32:52.022Z,1620.00
2023-04-25T09:33:54.684Z,1652.00
2023-04-25T09:34:51.960Z,1611.00
2023-04-25T09:35:54.767Z,1631.00
2023-04-25T09:36:51.892Z,1612.00
2023-04-25T09:37:51.882Z,1638.00
2023-04-25T09:38:51.855Z,1680.00
2023-04-25T09:39:51.829Z,1758.00
2023-04-25T09:40:51.801Z,1864.00
2023-04-25T09:41:51.778Z,1904.00
2023-04-25T09:42:52.753Z,1934.00
2023-04-25T09:43:51.749Z,1956.00
2023-04-25T09:44:51.720Z,1959.00
2023-04-25T09:45:51.737Z,1972.00
2023-04-25T09:46:51.691Z,1993.00
2023-04-25T09:47:51.694Z,2003.00
2023-04-25T09:48:51.657Z,2027.00
2023-04-25T09:49:54.261Z,2040.00
2023-04-25T09:50:51.606Z,2062.00
2023-04-25T09:51:51.586Z,2066.00
2023-04-25T09:52:51.571Z,2081.00
2023-04-25T09:53:51.894Z,2083.00
2023-04-25T09:54:52.585Z,2084.00
2023-04-25T09:55:51.521Z,2091.00
2023-04-25T09:56:52.201Z,2108.00
2023-04-25T09:57:51.468Z,2145.00
2023-04-25T09:58:51.454Z,2195.00
2023-04-25T09:59:51.436Z,2204.00
2023-04-25T10:00:51.393Z,2231.00
2023-04-25T10:01:54.911Z,2248.00
2023-04-25T10:02:51.443Z,2281.00
2023-04-25T10:03:52.389Z,2285.00
2023-04-25T10:04:51.314Z,2286.00
2023-04-25T10:05:51.273Z,2285.00
2023-04-25T10:06:51.251Z,2331.00
2023-04-25T10:07:51.224Z,2338.00
2023-04-25T10:08:51.204Z,2362.00
2023-04-25T10:09:51.165Z,2329.00
2023-04-25T10:10:51.138Z,2334.00
2023-04-25T10:11:51.130Z,2328.00
2023-04-25T10:12:51.125Z,2308.00
2023-04-25T10:13:51.250Z,2300.00
2023-04-25T10:14:51.087Z,2304.00
2023-04-25T10:15:51.092Z,2281.00
2023-04-25T10:16:51.004Z,2276.00
2023-04-25T10:17:51.003Z,2272.00
2023-04-25T10:18:50.946Z,2277.00
2023-04-25T10:19:50.932Z,2257.00
2023-04-25T10:20:52.239Z,2267.00
2023-04-25T10:21:50.948Z,2288.00
2023-04-25T10:22:50.869Z,2259.00
2023-04-25T10:23:51.073Z,2261.00
2023-04-25T10:24:50.823Z,2262.00
2023-04-25T10:25:50.811Z,2263.00
2023-04-25T10:26:50.785Z,2256.00
2023-04-25T10:27:50.787Z,2252.00
2023-04-25T10:28:50.751Z,2246.00
2023-04-25T10:29:50.751Z,2241.00
2023-04-25T10:30:50.821Z,2226.00
2023-04-25T10:31:50.771Z,2209.00
2023-04-25T10:32:50.677Z,2203.00
2023-04-25T10:33:50.873Z,2189.00
2023-04-25T10:34:51.648Z,2191.00
2023-04-25T10:35:50.623Z,2192.00
2023-04-25T10:36:50.605Z,2193.00
2023-04-25T10:37:50.622Z,2195.00
2023-04-25T10:38:50.598Z,2195.00
2023-04-25T10:39:51.043Z,2179.00
2023-04-25T10:40:50.535Z,2168.00
2023-04-25T10:41:50.562Z,2158.00
2023-04-25T10:42:50.497Z,2154.00
2023-04-25T10:43:50.809Z,2140.00
2023-04-25T10:44:50.461Z,2129.00
2023-04-25T10:45:50.444Z,2116.00
2023-04-25T10:46:50.459Z,2121.00
2023-04-25T10:47:50.476Z,2109.00
2023-04-25T10:48:50.367Z,2102.00
2023-04-25T10:49:50.353Z,2095.00
2023-04-25T10:50:50.334Z,2091.00
2023-04-25T10:51:54.880Z,2081.00
2023-04-25T10:52:51.311Z,2083.00
2023-04-25T10:53:50.484Z,2084.00
2023-04-25T10:54:50.260Z,2083.00
2023-04-25T10:55:50.234Z,2071.00
2023-04-25T10:56:50.211Z,2045.00
2023-04-25T10:57:50.199Z,2052.00
2023-04-25T10:58:52.009Z,2057.00
2023-04-25T10:59:50.187Z,2055.00
2023-04-25T11:01:50.437Z,2061.00
2023-04-25T11:02:50.234Z,2060.00
2023-04-25T11:03:50.313Z,2045.00
2023-04-25T11:04:50.223Z,2042.00
2023-04-25T11:05:57.920Z,2023.00
2023-04-25T11:06:53.862Z,2061.00
2023-04-25T11:08:00.034Z,2061.00
2023-04-25T11:08:51.278Z,2062.00
2023-04-25T11:09:50.044Z,2065.00
2023-04-25T11:10:52.106Z,2058.00
2023-04-25T11:11:49.965Z,2049.00
2023-04-25T11:12:49.945Z,2034.00
2023-04-25T11:13:50.789Z,2029.00
2023-04-25T11:14:49.956Z,2006.00
2023-04-25T11:15:55.035Z,1999.00
2023-04-25T11:16:50.920Z,2000.00
2023-04-25T11:17:49.942Z,1999.00
2023-04-25T11:18:50.064Z,1987.00
2023-04-25T11:19:49.899Z,1997.00
2023-04-25T11:20:49.818Z,1982.00
2023-04-25T11:21:49.793Z,1971.00
2023-04-25T11:22:50.942Z,1973.00
2023-04-25T11:23:50.125Z,1970.00
2023-04-25T11:24:49.820Z,1970.00
2023-04-25T11:25:49.807Z,1963.00
2023-04-25T11:26:49.813Z,1964.00
2023-04-25T11:27:50.742Z,1943.00
2023-04-25T11:28:49.810Z,1948.00
2023-04-25T11:29:49.810Z,1947.00
2023-04-25T11:30:49.837Z,1932.00
2023-04-25T11:31:49.853Z,1927.00
2023-04-25T11:32:49.866Z,1920.00
2023-04-25T11:33:49.981Z,1930.00
2023-04-25T11:34:49.841Z,1921.00
2023-04-25T11:35:49.839Z,1928.00
2023-04-25T11:36:49.848Z,1908.00
2023-04-25T11:37:49.846Z,1916.00
2023-04-25T11:38:49.846Z,1918.00
2023-04-25T11:39:49.885Z,1899.00
2023-04-25T11:40:49.870Z,1889.00
2023-04-25T11:41:49.889Z,1906.00
2023-04-25T11:42:49.927Z,1883.00
2023-04-25T11:43:49.914Z,1868.00
2023-04-25T11:44:49.908Z,1876.00
2023-04-25T11:45:49.965Z,1872.00
2023-04-25T11:46:49.947Z,1878.00
2023-04-25T11:47:50.174Z,1859.00
2023-04-25T11:48:50.063Z,1861.00
2023-04-25T11:49:49.921Z,1861.00
2023-04-25T11:50:49.920Z,1849.00
2023-04-25T11:51:49.921Z,1834.00
2023-04-25T11:52:49.928Z,1839.00
2023-04-25T11:53:49.926Z,1845.00
2023-04-25T11:54:49.933Z,1842.00
2023-04-25T11:55:51.343Z,1842.00
2023-04-25T11:56:49.933Z,1856.00
2023-04-25T11:57:49.947Z,1831.00
2023-04-25T11:58:49.953Z,1808.00
2023-04-25T11:59:49.961Z,1840.00
2023-04-25T12:00:50.555Z,1819.00
2023-04-25T12:01:49.975Z,1825.00
2023-04-25T12:02:50.034Z,1814.00
2023-04-25T12:03:50.133Z,1811.00
2023-04-25T12:04:50.142Z,1810.00
2023-04-25T12:05:50.275Z,1798.00
2023-04-25T12:06:50.069Z,1798.00
2023-04-25T12:07:50.023Z,1785.00
2023-04-25T12:08:50.252Z,1786.00
2023-04-25T12:09:50.006Z,1775.00
2023-04-25T12:10:50.025Z,1781.00
2023-04-25T12:11:50.028Z,1777.00
2023-04-25T12:12:50.040Z,1794.00
2023-04-25T12:13:50.047Z,1770.00
2023-04-25T12:14:50.056Z,1764.00
2023-04-25T12:15:50.129Z,1768.00
2023-04-25T12:16:50.060Z,1765.00
2023-04-25T12:17:50.096Z,1756.00
2023-04-25T12:18:50.298Z,1741.00
2023-04-25T12:19:50.090Z,1737.00
2023-04-25T12:20:50.128Z,1742.00